createdAt,value
2023-02-09T00:01:45.061Z,8.50
2023-02-09T00:04:13.487Z,8.50
2023-02-09T00:06:41.716Z,8.40
2023-02-09T00:09:14.568Z,8.40
2023-02-09T00:12:00.535Z,8.40
2023-02-09T00:14:29.212Z,8.50
2023-02-09T00:16:57.449Z,8.30
2023-02-09T00:19:25.770Z,8.30
2023-02-09T00:21:54.163Z,8.30
2023-02-09T00:24:23.835Z,8.30
2023-02-09T00:26:52.448Z,8.20
2023-02-09T00:29:22.550Z,8.20
2023-02-09T00:31:51.336Z,8.20
2023-02-09T00:34:19.829Z,8.10
2023-02-09T00:36:49.854Z,8.10
2023-02-09T00:39:18.141Z,8.10
2023-02-09T00:42:05.224Z,8.10
2023-02-09T00:44:34.047Z,8.10
2023-02-09T00:47:02.940Z,8.00
2023-02-09T00:49:31.893Z,8.00
2023-02-09T00:52:02.108Z,8.00
2023-02-09T00:54:30.801Z,8.00
2023-02-09T00:57:05.333Z,7.90
2023-02-09T00:59:35.197Z,8.00
2023-02-09T01:02:04.069Z,7.90
2023-02-09T01:04:32.429Z,7.90
2023-02-09T01:07:00.701Z,7.90
2023-02-09T01:09:29.021Z,7.80
2023-02-09T01:11:57.305Z,7.80
2023-02-09T01:14:26.986Z,7.80
2023-02-09T01:16:55.361Z,7.80
2023-02-09T01:19:23.708Z,7.70
2023-02-09T01:21:51.946Z,7.60
2023-02-09T01:24:20.217Z,7.60
2023-02-09T01:26:48.948Z,7.60
2023-02-09T01:29:19.600Z,7.50
2023-02-09T01:31:49.801Z,7.50
2023-02-09T01:34:19.364Z,7.40
2023-02-09T01:36:48.600Z,7.40
2023-02-09T01:39:16.925Z,7.40
2023-02-09T01:41:45.510Z,7.40
2023-02-09T01:45:02.747Z,7.30
2023-02-09T01:47:34.077Z,7.30
2023-02-09T01:50:02.339Z,7.30
2023-02-09T01:52:31.294Z,7.30
2023-02-09T01:55:02.964Z,7.20
2023-02-09T01:57:33.982Z,7.20
2023-02-09T02:00:09.228Z,7.20
2023-02-09T02:02:40.263Z,7.20
2023-02-09T02:05:09.691Z,7.20
2023-02-09T02:07:43.153Z,7.20
2023-02-09T02:10:11.719Z,7.20
2023-02-09T02:12:43.264Z,7.20
2023-02-09T02:15:12.443Z,7.20
2023-02-09T02:18:03.494Z,7.20
2023-02-09T02:21:07.297Z,7.20
2023-02-09T02:23:44.627Z,7.10
2023-02-09T02:26:53.035Z,7.00
2023-02-09T02:29:45.447Z,7.00
2023-02-09T02:32:40.161Z,7.00
2023-02-09T02:35:17.021Z,7.00
2023-02-09T02:37:58.205Z,6.90
2023-02-09T02:40:37.416Z,6.90
2023-02-09T02:43:12.698Z,6.90
2023-02-09T02:45:48.720Z,6.80
2023-02-09T02:48:26.366Z,6.80
2023-02-09T02:50:58.303Z,6.80
2023-02-09T02:53:30.486Z,6.80
2023-02-09T02:56:03.976Z,6.70
2023-02-09T02:58:34.878Z,6.60
2023-02-09T03:01:05.702Z,6.70
2023-02-09T03:03:38.380Z,6.60
2023-02-09T03:06:08.373Z,6.60
2023-02-09T03:08:51.070Z,6.70
2023-02-09T03:11:21.387Z,6.70
2023-02-09T03:14:09.821Z,6.60
2023-02-09T03:16:45.664Z,6.60
2023-02-09T03:19:26.076Z,6.60
2023-02-09T03:21:59.303Z,6.60
2023-02-09T03:24:41.399Z,6.60
2023-02-09T03:27:16.661Z,6.50
2023-02-09T03:29:47.834Z,6.50
2023-02-09T03:32:17.523Z,6.50
2023-02-09T03:34:50.290Z,6.50
2023-02-09T03:37:19.356Z,6.50
2023-02-09T03:39:47.873Z,6.50
2023-02-09T03:42:16.160Z,6.50
2023-02-09T03:44:44.918Z,6.40
2023-02-09T03:47:13.258Z,6.40
2023-02-09T03:49:43.007Z,6.30
2023-02-09T03:52:14.615Z,6.40
2023-02-09T03:54:43.462Z,6.30
2023-02-09T03:57:11.948Z,6.30
2023-02-09T03:59:40.427Z,6.30
2023-02-09T04:02:09.985Z,6.20
2023-02-09T04:04:38.822Z,6.20
2023-02-09T04:07:07.294Z,6.20
2023-02-09T04:09:37.976Z,6.20
2023-02-09T04:12:06.967Z,6.10
2023-02-09T04:14:35.481Z,6.20
2023-02-09T04:17:03.787Z,6.10
2023-02-09T04:19:32.126Z,6.10
2023-02-09T04:22:01.147Z,6.10
2023-02-09T04:24:30.054Z,6.10
2023-02-09T04:26:59.757Z,6.10
2023-02-09T04:29:28.292Z,6.10
2023-02-09T04:31:56.759Z,6.10
2023-02-09T04:34:25.304Z,6.00
2023-02-09T04:36:53.700Z,6.00
2023-02-09T04:39:22.030Z,6.00
2023-02-09T04:41:50.407Z,6.00
2023-02-09T04:44:20.123Z,6.00
2023-02-09T04:46:48.387Z,6.00
2023-02-09T04:49:16.676Z,6.00
2023-02-09T04:51:44.986Z,6.00
2023-02-09T04:54:13.267Z,5.90
2023-02-09T04:56:41.659Z,5.80
2023-02-09T04:59:28.683Z,5.80
2023-02-09T05:01:58.442Z,5.80
2023-02-09T05:04:26.867Z,5.80
2023-02-09T05:06:55.247Z,5.80
2023-02-09T05:09:24.025Z,5.80
2023-02-09T05:11:52.763Z,5.90
2023-02-09T05:14:21.068Z,5.90
2023-02-09T05:16:49.394Z,5.80
2023-02-09T05:19:19.125Z,5.80
2023-02-09T05:21:47.406Z,5.80
2023-02-09T05:24:15.748Z,5.80
2023-02-09T05:26:44.313Z,5.80
2023-02-09T05:29:12.699Z,5.80
2023-02-09T05:31:41.556Z,5.70
2023-02-09T05:34:10.138Z,5.70
2023-02-09T05:36:39.904Z,5.70
2023-02-09T05:39:08.431Z,5.70
2023-02-09T05:41:54.276Z,5.80
2023-02-09T05:44:25.611Z,5.70
2023-02-09T05:46:53.950Z,5.70
2023-02-09T05:49:22.265Z,5.70
2023-02-09T05:51:51.995Z,5.70
2023-02-09T05:54:20.340Z,5.70
2023-02-09T05:56:48.789Z,5.60
2023-02-09T05:59:17.085Z,5.60
2023-02-09T06:01:45.515Z,5.60
2023-02-09T06:04:14.038Z,5.60
2023-02-09T06:06:42.506Z,5.60
2023-02-09T06:09:12.594Z,5.60
2023-02-09T06:11:41.009Z,5.60
2023-02-09T06:14:09.656Z,5.60
2023-02-09T06:16:38.190Z,5.60
2023-02-09T06:19:06.656Z,5.60
2023-02-09T06:21:36.169Z,5.60
2023-02-09T06:24:04.605Z,5.60
2023-02-09T06:26:34.462Z,5.60
2023-02-09T06:29:02.898Z,5.60
2023-02-09T06:31:31.833Z,5.60
2023-02-09T06:34:00.428Z,5.60
2023-02-09T06:36:28.817Z,5.60
2023-02-09T06:38:57.126Z,5.60
2023-02-09T06:41:25.404Z,5.60
2023-02-09T06:43:55.641Z,5.50
2023-02-09T06:46:24.104Z,5.50
2023-02-09T06:48:52.608Z,5.60
2023-02-09T06:51:21.396Z,5.60
2023-02-09T06:53:49.811Z,5.60
2023-02-09T06:56:18.197Z,5.60
2023-02-09T06:58:46.538Z,5.50
2023-02-09T07:01:17.217Z,5.60
2023-02-09T07:03:46.003Z,5.60
2023-02-09T07:06:16.436Z,5.60
2023-02-09T07:08:45.796Z,5.60
2023-02-09T07:11:16.620Z,5.60
2023-02-09T07:13:45.995Z,5.60
2023-02-09T07:16:15.965Z,5.60
2023-02-09T07:18:44.748Z,5.60
2023-02-09T07:21:18.628Z,5.50
2023-02-09T07:23:47.477Z,5.50
2023-02-09T07:26:18.175Z,5.50
2023-02-09T07:28:47.193Z,5.50
2023-02-09T07:31:18.785Z,5.60
2023-02-09T07:33:47.827Z,5.50
2023-02-09T07:36:18.150Z,5.50
2023-02-09T07:38:47.285Z,5.50
2023-02-09T07:41:17.303Z,5.50
2023-02-09T07:43:46.497Z,5.50
2023-02-09T07:46:19.098Z,5.40
2023-02-09T07:48:47.613Z,5.50
2023-02-09T07:51:16.710Z,5.50
2023-02-09T07:53:45.026Z,5.50
2023-02-09T07:56:13.321Z,5.50
2023-02-09T07:58:41.647Z,5.50
2023-02-09T08:01:13.075Z,5.50
2023-02-09T08:03:45.112Z,5.50
2023-02-09T08:06:19.776Z,5.50
2023-02-09T08:08:49.445Z,5.50
2023-02-09T08:11:21.177Z,5.50
2023-02-09T08:13:51.057Z,5.50
2023-02-09T08:16:23.376Z,5.60
2023-02-09T08:18:57.210Z,5.60
2023-02-09T08:21:26.365Z,5.60
2023-02-09T08:23:56.929Z,5.70
2023-02-09T08:26:25.348Z,5.70
2023-02-09T08:28:54.920Z,5.80
2023-02-09T08:31:23.767Z,5.80
2023-02-09T08:33:54.300Z,5.90
2023-02-09T08:36:23.052Z,6.00
2023-02-09T08:38:51.380Z,6.10
2023-02-09T08:41:20.148Z,6.10
2023-02-09T08:43:52.112Z,6.10
2023-02-09T08:46:20.920Z,6.10
2023-02-09T08:48:53.319Z,6.10
2023-02-09T08:51:23.185Z,6.10
2023-02-09T08:53:53.295Z,6.10
2023-02-09T08:56:22.444Z,6.10
2023-02-09T08:58:51.340Z,6.10
2023-02-09T09:01:19.843Z,6.10
2023-02-09T09:03:48.226Z,6.10
2023-02-09T09:06:16.594Z,6.10
2023-02-09T09:08:46.996Z,6.10
2023-02-09T09:11:15.448Z,6.10
2023-02-09T09:13:43.930Z,6.10
2023-02-09T09:16:16.659Z,6.20
2023-02-09T09:18:45.617Z,6.20
2023-02-09T09:21:15.259Z,6.20
2023-02-09T09:23:44.155Z,6.30
2023-02-09T09:26:14.243Z,6.30
2023-02-09T09:28:42.547Z,6.40
2023-02-09T09:31:11.830Z,6.40
2023-02-09T09:33:41.845Z,6.50
2023-02-09T09:36:14.780Z,6.50
2023-02-09T09:38:43.339Z,6.60
2023-02-09T09:41:24.001Z,6.60
2023-02-09T09:43:53.696Z,6.70
2023-02-09T09:46:25.824Z,6.70
2023-02-09T09:48:56.769Z,6.80
2023-02-09T09:51:37.927Z,6.90
2023-02-09T09:54:09.441Z,6.90
2023-02-09T09:56:41.208Z,7.00
2023-02-09T09:59:17.854Z,7.00
2023-02-09T10:01:46.426Z,7.10
2023-02-09T10:04:16.510Z,7.20
2023-02-09T10:06:47.181Z,7.20
2023-02-09T10:09:30.385Z,7.20
2023-02-09T10:12:13.242Z,7.30
2023-02-09T10:14:41.610Z,7.40
2023-02-09T10:17:10.259Z,7.40
2023-02-09T10:19:38.822Z,7.50
2023-02-09T10:22:14.398Z,7.50
2023-02-09T10:24:42.861Z,7.60
2023-02-09T10:27:25.887Z,7.60
2023-02-09T10:29:54.310Z,7.70
2023-02-09T10:32:27.042Z,7.80
2023-02-09T10:34:57.996Z,7.80
2023-02-09T10:37:30.494Z,7.80
2023-02-09T10:40:11.497Z,7.90
2023-02-09T10:42:44.469Z,7.90
2023-02-09T10:45:20.991Z,8.00
2023-02-09T10:48:00.009Z,8.00
2023-02-09T10:50:28.404Z,8.00
2023-02-09T10:53:00.027Z,8.00
2023-02-09T10:55:35.493Z,8.00
2023-02-09T10:58:19.383Z,8.00
2023-02-09T11:00:53.081Z,8.00
2023-02-09T11:03:25.281Z,8.10
2023-02-09T11:06:02.249Z,8.10
2023-02-09T11:08:45.025Z,8.10
2023-02-09T11:11:30.075Z,8.10
2023-02-09T11:14:00.172Z,8.20
2023-02-09T11:16:50.989Z,8.20
2023-02-09T11:19:45.766Z,8.20
2023-02-09T11:22:18.041Z,8.20
2023-02-09T11:24:59.934Z,8.30
2023-02-09T11:27:45.505Z,8.30
2023-02-09T11:30:29.647Z,8.30
2023-02-09T11:33:04.154Z,8.30
2023-02-09T11:35:44.798Z,8.40
2023-02-09T11:38:17.121Z,8.40
2023-02-09T11:40:50.271Z,8.40
2023-02-09T11:43:26.589Z,8.50
2023-02-09T11:46:01.450Z,8.50
2023-02-09T11:48:32.176Z,8.60
2023-02-09T11:51:08.827Z,8.60
2023-02-09T11:53:49.137Z,8.60
2023-02-09T11:56:20.558Z,8.60
2023-02-09T11:58:55.368Z,8.60
2023-02-09T12:01:32.416Z,8.60
2023-02-09T12:04:13.633Z,8.70
2023-02-09T12:06:45.338Z,8.70
2023-02-09T12:09:27.432Z,8.70
2023-02-09T12:12:06.304Z,8.80
2023-02-09T12:14:49.142Z,8.80
2023-02-09T12:17:23.806Z,8.90
2023-02-09T12:19:58.248Z,8.90
2023-02-09T12:22:53.567Z,9.00
2023-02-09T12:25:34.927Z,9.00
2023-02-09T12:28:14.910Z,9.10
2023-02-09T12:31:07.052Z,9.10
2023-02-09T12:36:33.464Z,9.20
2023-02-09T12:39:24.188Z,9.30
2023-02-09T12:42:31.316Z,9.30
2023-02-09T12:45:00.713Z,9.40
2023-02-09T12:47:48.443Z,9.50
2023-02-09T12:50:35.319Z,9.50
2023-02-09T12:53:38.042Z,9.60
2023-02-09T12:56:27.894Z,9.60
2023-02-09T12:59:07.311Z,9.70
2023-02-09T13:02:12.424Z,9.80
2023-02-09T13:04:45.808Z,9.90
2023-02-09T13:07:24.578Z,9.90
2023-02-09T13:09:55.407Z,10.00
2023-02-09T13:12:32.189Z,10.00
2023-02-09T13:15:07.481Z,10.00
2023-02-09T13:17:41.400Z,10.00
2023-02-09T13:20:52.532Z,10.00
2023-02-09T13:23:33.312Z,10.00
2023-02-09T13:26:11.062Z,10.10
2023-02-09T13:28:39.461Z,10.10
2023-02-09T13:31:24.187Z,10.10
2023-02-09T13:33:57.044Z,10.10
2023-02-09T13:36:37.282Z,10.10
2023-02-09T13:39:09.967Z,10.10
2023-02-09T13:41:40.811Z,10.20
2023-02-09T13:44:21.916Z,10.20
2023-02-09T13:46:57.510Z,10.30
2023-02-09T13:49:27.755Z,10.30
2023-02-09T13:52:13.759Z,10.30
2023-02-09T13:54:44.623Z,10.30
2023-02-09T13:57:21.306Z,10.30
2023-02-09T13:59:50.359Z,10.30
2023-02-09T14:02:22.492Z,10.30
2023-02-09T14:04:55.576Z,10.30
2023-02-09T14:07:27.452Z,10.30
2023-02-09T14:10:03.593Z,10.30
2023-02-09T14:12:53.030Z,10.30
2023-02-09T14:15:43.176Z,10.30
2023-02-09T14:18:30.301Z,10.30
2023-02-09T14:21:04.311Z,10.30
2023-02-09T14:23:35.502Z,10.30
2023-02-09T14:26:07.649Z,10.40
2023-02-09T14:28:38.071Z,10.40
2023-02-09T14:31:07.402Z,10.50
2023-02-09T14:33:39.083Z,10.60
2023-02-09T14:36:21.794Z,10.60
2023-02-09T14:38:51.748Z,10.60
2023-02-09T14:41:32.937Z,10.70
2023-02-09T14:44:02.874Z,10.70
2023-02-09T14:46:49.286Z,10.70
2023-02-09T14:49:17.947Z,10.70
2023-02-09T14:51:47.207Z,10.70
2023-02-09T14:54:24.291Z,10.70
2023-02-09T14:56:57.891Z,10.60
2023-02-09T14:59:26.926Z,10.60
2023-02-09T15:01:56.171Z,10.60
2023-02-09T15:04:25.305Z,10.50
2023-02-09T15:07:01.566Z,10.50
2023-02-09T15:09:37.347Z,10.50
2023-02-09T15:12:08.478Z,10.50
2023-02-09T15:14:42.554Z,10.50
2023-02-09T15:17:16.229Z,10.50
2023-02-09T15:19:44.946Z,10.40
2023-02-09T15:22:15.638Z,10.30
2023-02-09T15:24:45.056Z,10.30
2023-02-09T15:27:26.779Z,10.30
2023-02-09T15:29:59.423Z,10.30
2023-02-09T15:32:29.272Z,10.30
2023-02-09T15:34:57.648Z,10.40
2023-02-09T15:37:28.392Z,10.40
2023-02-09T15:39:59.756Z,10.40
2023-02-09T15:42:47.206Z,10.40
2023-02-09T15:45:34.197Z,10.40
2023-02-09T15:48:05.310Z,10.30
2023-02-09T15:50:35.016Z,10.30
2023-02-09T15:53:04.961Z,10.30
2023-02-09T15:55:34.906Z,10.30
2023-02-09T15:58:05.486Z,10.30
2023-02-09T16:00:33.878Z,10.40
2023-02-09T16:03:16.025Z,10.40
2023-02-09T16:05:45.387Z,10.40
2023-02-09T16:08:20.260Z,10.40
2023-02-09T16:10:49.332Z,10.40
2023-02-09T16:13:20.647Z,10.50
2023-02-09T16:15:49.512Z,10.50
2023-02-09T16:18:17.900Z,10.50
2023-02-09T16:20:48.224Z,10.40
2023-02-09T16:23:21.583Z,10.40
2023-02-09T16:25:51.653Z,10.40
2023-02-09T16:28:22.444Z,10.40
2023-02-09T16:30:53.962Z,10.40
2023-02-09T16:33:23.415Z,10.40
2023-02-09T16:35:55.387Z,10.40
2023-02-09T16:38:25.146Z,10.40
2023-02-09T16:40:54.479Z,10.30
2023-02-09T16:43:25.019Z,10.30
2023-02-09T16:46:03.325Z,10.20
2023-02-09T16:48:34.699Z,10.30
2023-02-09T16:51:03.478Z,10.20
2023-02-09T16:53:36.345Z,10.20
2023-02-09T16:56:10.267Z,10.20
2023-02-09T16:58:42.183Z,10.20
2023-02-09T17:01:17.915Z,10.10
2023-02-09T17:03:52.160Z,10.10
2023-02-09T17:06:22.678Z,10.10
2023-02-09T17:08:51.281Z,10.00
2023-02-09T17:11:22.171Z,10.00
2023-02-09T17:13:52.087Z,10.00
2023-02-09T17:16:22.773Z,10.00
2023-02-09T17:18:53.581Z,9.90
2023-02-09T17:21:23.919Z,9.80
2023-02-09T17:23:53.215Z,9.80
2023-02-09T17:26:22.288Z,9.70
2023-02-09T17:28:52.263Z,9.70
2023-02-09T17:31:24.510Z,9.70
2023-02-09T17:33:55.094Z,9.60
2023-02-09T17:36:27.959Z,9.60
2023-02-09T17:39:01.271Z,9.60
2023-02-09T17:41:34.157Z,9.60
2023-02-09T17:44:26.503Z,9.70
2023-02-09T17:47:00.148Z,9.70
2023-02-09T17:49:28.562Z,9.70
2023-02-09T17:51:56.889Z,9.70
2023-02-09T17:54:25.346Z,9.70
2023-02-09T17:56:53.807Z,9.70
2023-02-09T17:59:23.592Z,9.70
2023-02-09T18:01:55.225Z,9.70
2023-02-09T18:04:27.165Z,9.70
2023-02-09T18:06:57.608Z,9.70
2023-02-09T18:09:26.210Z,9.70
2023-02-09T18:12:02.724Z,9.70
2023-02-09T18:14:34.549Z,9.70
2023-02-09T18:17:03.349Z,9.60
2023-02-09T18:19:33.119Z,9.60
2023-02-09T18:22:14.930Z,9.70
2023-02-09T18:24:43.206Z,9.60
2023-02-09T18:27:14.923Z,9.60
2023-02-09T18:29:44.606Z,9.60
2023-02-09T18:32:15.775Z,9.70
2023-02-09T18:34:44.118Z,9.70
2023-02-09T18:37:13.554Z,9.60
2023-02-09T18:39:46.337Z,9.60
2023-02-09T18:42:16.698Z,9.60
2023-02-09T18:44:46.466Z,9.60
2023-02-09T18:47:14.820Z,9.60
2023-02-09T18:49:43.295Z,9.60
2023-02-09T18:52:17.093Z,9.60
2023-02-09T18:54:45.501Z,9.60
2023-02-09T18:57:14.531Z,9.60
2023-02-09T18:59:46.789Z,9.60
2023-02-09T19:02:17.590Z,9.60
2023-02-09T19:04:46.063Z,9.60
2023-02-09T19:07:16.295Z,9.60
2023-02-09T19:09:46.059Z,9.50
2023-02-09T19:12:14.535Z,9.50
2023-02-09T19:14:45.837Z,9.50
2023-02-09T19:17:17.995Z,9.50
2023-02-09T19:19:47.569Z,9.50
2023-02-09T19:22:17.921Z,9.60
2023-02-09T19:24:47.508Z,9.50
2023-02-09T19:27:18.721Z,9.50
2023-02-09T19:29:47.316Z,9.50
2023-02-09T19:32:17.959Z,9.50
2023-02-09T19:34:46.863Z,9.60
2023-02-09T19:37:16.490Z,9.60
2023-02-09T19:39:53.032Z,9.50
2023-02-09T19:42:25.108Z,9.50
2023-02-09T19:44:55.611Z,9.50
2023-02-09T19:47:27.512Z,9.50
2023-02-09T19:49:56.769Z,9.40
2023-02-09T19:52:27.860Z,9.50
2023-02-09T19:54:57.915Z,9.40
2023-02-09T19:57:26.475Z,9.40
2023-02-09T19:59:57.025Z,9.40
2023-02-09T20:02:26.853Z,9.40
2023-02-09T20:04:55.191Z,9.50
2023-02-09T20:07:24.832Z,9.40
2023-02-09T20:09:53.456Z,9.50
2023-02-09T20:12:24.300Z,9.40
2023-02-09T20:14:54.909Z,9.40
2023-02-09T20:17:23.259Z,9.50
2023-02-09T20:19:52.962Z,9.50
2023-02-09T20:22:21.495Z,9.50
2023-02-09T20:24:49.891Z,9.50
2023-02-09T20:27:19.077Z,9.50
2023-02-09T20:29:47.465Z,9.40
2023-02-09T20:32:16.098Z,9.40
2023-02-09T20:34:44.807Z,9.50
2023-02-09T20:37:14.494Z,9.50
2023-02-09T20:39:45.614Z,9.50
2023-02-09T20:42:31.424Z,9.40
2023-02-09T20:45:17.016Z,9.40
2023-02-09T20:47:45.255Z,9.40
2023-02-09T20:50:13.834Z,9.40
2023-02-09T20:52:45.752Z,9.40
2023-02-09T20:55:14.008Z,9.40
2023-02-09T20:57:42.382Z,9.40
2023-02-09T21:00:11.715Z,9.40
2023-02-09T21:02:40.269Z,9.40
2023-02-09T21:05:11.397Z,9.40
2023-02-09T21:07:39.990Z,9.40
2023-02-09T21:10:15.716Z,9.40
2023-02-09T21:12:44.226Z,9.40
2023-02-09T21:15:12.573Z,9.30
2023-02-09T21:17:48.046Z,9.30
2023-02-09T21:20:17.249Z,9.30
2023-02-09T21:22:45.854Z,9.20
2023-02-09T21:25:15.595Z,9.20
2023-02-09T21:27:43.853Z,9.20
2023-02-09T21:30:13.140Z,9.20
2023-02-09T21:32:41.416Z,9.20
2023-02-09T21:35:11.174Z,9.20
2023-02-09T21:37:39.771Z,9.20
2023-02-09T21:40:08.624Z,9.20
2023-02-09T21:42:40.358Z,9.10
2023-02-09T21:45:09.595Z,9.10
2023-02-09T21:47:40.334Z,9.10
2023-02-09T21:50:10.920Z,9.10
2023-02-09T21:52:39.196Z,9.00
2023-02-09T21:55:08.365Z,9.00
2023-02-09T21:57:38.977Z,9.00
2023-02-09T22:00:09.852Z,9.00
2023-02-09T22:02:38.816Z,8.90
2023-02-09T22:05:08.400Z,8.90
2023-02-09T22:07:37.159Z,8.90
2023-02-09T22:10:06.329Z,8.80
2023-02-09T22:12:36.444Z,8.80
2023-02-09T22:15:06.994Z,8.80
2023-02-09T22:17:38.038Z,8.80
2023-02-09T22:20:07.375Z,8.70
2023-02-09T22:22:35.790Z,8.70
2023-02-09T22:25:04.039Z,8.70
2023-02-09T22:27:32.386Z,8.70
2023-02-09T22:30:00.715Z,8.60
2023-02-09T22:32:32.030Z,8.60
2023-02-09T22:35:00.410Z,8.60
2023-02-09T22:37:28.807Z,8.50
2023-02-09T22:39:57.061Z,8.50
2023-02-09T22:42:25.900Z,8.50
2023-02-09T22:44:54.372Z,8.50
2023-02-09T22:47:23.016Z,8.40
2023-02-09T22:49:52.706Z,8.40
2023-02-09T22:52:21.030Z,8.40
2023-02-09T22:54:49.317Z,8.40
2023-02-09T22:57:17.592Z,8.40
2023-02-09T22:59:46.647Z,8.30
2023-02-09T23:02:14.919Z,8.30
2023-02-09T23:04:43.206Z,8.30
2023-02-09T23:07:12.908Z,8.30
2023-02-09T23:09:41.515Z,8.30
2023-02-09T23:12:09.786Z,8.30
2023-02-09T23:14:38.037Z,8.30
2023-02-09T23:17:06.380Z,8.30
2023-02-09T23:19:34.693Z,8.30
2023-02-09T23:22:03.290Z,8.20
2023-02-09T23:24:33.132Z,8.20
2023-02-09T23:27:01.517Z,8.20
2023-02-09T23:29:30.999Z,8.20
2023-02-09T23:31:59.393Z,8.20
2023-02-09T23:34:27.708Z,8.20
2023-02-09T23:36:59.111Z,8.20
2023-02-09T23:39:34.859Z,8.20
2023-02-09T23:42:03.123Z,8.20
2023-02-09T23:44:31.516Z,8.20
2023-02-09T23:46:59.891Z,8.20
2023-02-09T23:49:28.151Z,8.20
2023-02-09T23:51:56.456Z,8.20
2023-02-09T23:54:24.808Z,8.20
2023-02-09T23:56:54.907Z,8.10
2023-02-09T23:59:23.377Z,8.10
